sensor_id;sensor_type;location;lat;lon;timestamp;P1;durP1;ratioP1;P2;durP2;ratioP2
9888;SDS011;4983;42.112;24.738;2022-10-23T00:00:28;33.73;;;24.00;;
9888;SDS011;4983;42.112;24.738;2022-10-23T00:02:55;33.27;;;24.00;;
9888;SDS011;4983;42.112;24.738;2022-10-23T00:05:25;32.67;;;25.13;;
9888;SDS011;4983;42.112;24.738;2022-10-23T00:07:53;28.40;;;22.50;;
9888;SDS011;4983;42.112;24.738;2022-10-23T00:10:21;31.57;;;22.40;;
9888;SDS011;4983;42.112;24.738;2022-10-23T00:12:48;28.60;;;22.40;;
9888;SDS011;4983;42.112;24.738;2022-10-23T00:15:16;28.50;;;21.43;;
9888;SDS011;4983;42.112;24.738;2022-10-23T00:17:43;25.87;;;19.47;;
9888;SDS011;4983;42.112;24.738;2022-10-23T00:20:11;21.57;;;18.23;;
9888;SDS011;4983;42.112;24.738;2022-10-23T00:22:39;25.20;;;18.70;;
9888;SDS011;4983;42.112;24.738;2022-10-23T00:25:07;22.53;;;18.57;;
9888;SDS011;4983;42.112;24.738;2022-10-23T00:27:35;21.30;;;18.70;;
9888;SDS011;4983;42.112;24.738;2022-10-23T00:30:03;26.97;;;19.33;;
9888;SDS011;4983;42.112;24.738;2022-10-23T00:32:30;29.70;;;18.87;;
9888;SDS011;4983;42.112;24.738;2022-10-23T00:34:56;57.70;;;22.60;;
9888;SDS011;4983;42.112;24.738;2022-10-23T00:37:23;37.53;;;20.23;;
9888;SDS011;4983;42.112;24.738;2022-10-23T00:39:51;35.27;;;20.83;;
9888;SDS011;4983;42.112;24.738;2022-10-23T00:42:19;34.73;;;19.33;;
9888;SDS011;4983;42.112;24.738;2022-10-23T00:47:43;29.97;;;18.80;;
9888;SDS011;4983;42.112;24.738;2022-10-23T00:50:10;28.30;;;19.30;;
9888;SDS011;4983;42.112;24.738;2022-10-23T00:52:39;36.97;;;19.50;;
9888;SDS011;4983;42.112;24.738;2022-10-23T00:55:08;29.00;;;19.43;;
9888;SDS011;4983;42.112;24.738;2022-10-23T00:57:35;30.83;;;20.80;;
9888;SDS011;4983;42.112;24.738;2022-10-23T01:00:01;24.93;;;20.67;;
9888;SDS011;4983;42.112;24.738;2022-10-23T01:02:28;27.37;;;20.70;;
9888;SDS011;4983;42.112;24.738;2022-10-23T01:04:55;26.43;;;21.30;;
9888;SDS011;4983;42.112;24.738;2022-10-23T01:07:24;26.23;;;20.87;;
9888;SDS011;4983;42.112;24.738;2022-10-23T01:09:56;24.57;;;20.33;;
9888;SDS011;4983;42.112;24.738;2022-10-23T01:12:27;26.00;;;20.50;;
9888;SDS011;4983;42.112;24.738;2022-10-23T01:14:58;25.53;;;21.20;;
9888;SDS011;4983;42.112;24.738;2022-10-23T01:17:28;27.70;;;20.63;;
9888;SDS011;4983;42.112;24.738;2022-10-23T01:20:00;24.57;;;20.53;;
9888;SDS011;4983;42.112;24.738;2022-10-23T01:22:40;24.03;;;20.13;;
9888;SDS011;4983;42.112;24.738;2022-10-23T01:25:17;30.33;;;22.43;;
9888;SDS011;4983;42.112;24.738;2022-10-23T01:27:48;23.20;;;20.33;;
9888;SDS011;4983;42.112;24.738;2022-10-23T01:30:16;30.20;;;20.70;;
9888;SDS011;4983;42.112;24.738;2022-10-23T01:32:43;24.73;;;20.10;;
9888;SDS011;4983;42.112;24.738;2022-10-23T01:35:13;26.80;;;21.10;;
9888;SDS011;4983;42.112;24.738;2022-10-23T01:37:43;29.90;;;20.73;;
9888;SDS011;4983;42.112;24.738;2022-10-23T01:40:12;26.23;;;21.00;;
9888;SDS011;4983;42.112;24.738;2022-10-23T01:42:43;28.50;;;21.70;;
9888;SDS011;4983;42.112;24.738;2022-10-23T01:45:12;24.87;;;21.10;;
9888;SDS011;4983;42.112;24.738;2022-10-23T01:47:41;25.97;;;20.27;;
9888;SDS011;4983;42.112;24.738;2022-10-23T01:50:09;26.13;;;21.93;;
9888;SDS011;4983;42.112;24.738;2022-10-23T01:52:36;27.87;;;21.23;;
9888;SDS011;4983;42.112;24.738;2022-10-23T01:55:03;24.40;;;21.00;;
9888;SDS011;4983;42.112;24.738;2022-10-23T01:57:31;27.50;;;22.20;;
9888;SDS011;4983;42.112;24.738;2022-10-23T02:00:00;23.00;;;20.57;;
9888;SDS011;4983;42.112;24.738;2022-10-23T02:02:28;26.00;;;21.37;;
9888;SDS011;4983;42.112;24.738;2022-10-23T02:04:57;27.70;;;21.93;;
9888;SDS011;4983;42.112;24.738;2022-10-23T02:07:25;28.30;;;22.17;;
9888;SDS011;4983;42.112;24.738;2022-10-23T02:09:52;30.73;;;21.67;;
9888;SDS011;4983;42.112;24.738;2022-10-23T02:12:21;24.83;;;21.53;;
9888;SDS011;4983;42.112;24.738;2022-10-23T02:14:52;27.57;;;22.13;;
9888;SDS011;4983;42.112;24.738;2022-10-23T02:17:20;27.73;;;21.50;;
9888;SDS011;4983;42.112;24.738;2022-10-23T02:19:52;27.87;;;22.70;;
9888;SDS011;4983;42.112;24.738;2022-10-23T02:22:22;28.17;;;22.77;;
9888;SDS011;4983;42.112;24.738;2022-10-23T02:24:50;26.77;;;21.77;;
9888;SDS011;4983;42.112;24.738;2022-10-23T02:27:19;28.97;;;21.70;;
9888;SDS011;4983;42.112;24.738;2022-10-23T02:29:48;25.93;;;22.00;;
9888;SDS011;4983;42.112;24.738;2022-10-23T02:32:17;25.73;;;21.50;;
9888;SDS011;4983;42.112;24.738;2022-10-23T02:34:44;30.10;;;23.67;;
9888;SDS011;4983;42.112;24.738;2022-10-23T02:37:13;26.63;;;21.27;;
9888;SDS011;4983;42.112;24.738;2022-10-23T02:39:40;24.97;;;20.10;;
9888;SDS011;4983;42.112;24.738;2022-10-23T02:42:08;21.90;;;19.07;;
9888;SDS011;4983;42.112;24.738;2022-10-23T02:44:42;24.37;;;19.53;;
9888;SDS011;4983;42.112;24.738;2022-10-23T02:47:15;23.17;;;19.40;;
9888;SDS011;4983;42.112;24.738;2022-10-23T02:49:46;28.07;;;21.30;;
9888;SDS011;4983;42.112;24.738;2022-10-23T02:52:17;26.10;;;19.87;;
9888;SDS011;4983;42.112;24.738;2022-10-23T02:54:54;25.03;;;20.57;;
9888;SDS011;4983;42.112;24.738;2022-10-23T02:57:26;27.50;;;21.07;;
9888;SDS011;4983;42.112;24.738;2022-10-23T02:59:58;24.87;;;20.70;;
9888;SDS011;4983;42.112;24.738;2022-10-23T03:02:28;30.00;;;20.07;;
9888;SDS011;4983;42.112;24.738;2022-10-23T03:04:56;24.77;;;20.00;;
9888;SDS011;4983;42.112;24.738;2022-10-23T03:07:25;25.30;;;20.57;;
9888;SDS011;4983;42.112;24.738;2022-10-23T03:09:52;24.73;;;19.63;;
9888;SDS011;4983;42.112;24.738;2022-10-23T03:12:19;22.07;;;19.60;;
9888;SDS011;4983;42.112;24.738;2022-10-23T03:14:46;21.30;;;18.47;;
9888;SDS011;4983;42.112;24.738;2022-10-23T03:17:13;21.50;;;19.20;;
9888;SDS011;4983;42.112;24.738;2022-10-23T03:19:39;33.77;;;19.53;;
9888;SDS011;4983;42.112;24.738;2022-10-23T03:22:06;23.77;;;19.60;;
9888;SDS011;4983;42.112;24.738;2022-10-23T03:24:34;25.07;;;20.00;;
9888;SDS011;4983;42.112;24.738;2022-10-23T03:27:01;26.03;;;18.30;;
9888;SDS011;4983;42.112;24.738;2022-10-23T03:29:28;24.77;;;20.33;;
9888;SDS011;4983;42.112;24.738;2022-10-23T03:31:55;26.10;;;19.53;;
9888;SDS011;4983;42.112;24.738;2022-10-23T03:34:22;30.57;;;20.43;;
9888;SDS011;4983;42.112;24.738;2022-10-23T03:36:49;24.33;;;19.27;;
9888;SDS011;4983;42.112;24.738;2022-10-23T03:39:15;23.10;;;20.80;;
9888;SDS011;4983;42.112;24.738;2022-10-23T03:41:44;25.47;;;20.57;;
9888;SDS011;4983;42.112;24.738;2022-10-23T03:44:10;45.80;;;23.00;;
9888;SDS011;4983;42.112;24.738;2022-10-23T03:46:37;32.33;;;20.03;;
9888;SDS011;4983;42.112;24.738;2022-10-23T03:49:05;26.03;;;18.87;;
9888;SDS011;4983;42.112;24.738;2022-10-23T03:51:31;20.90;;;16.90;;
9888;SDS011;4983;42.112;24.738;2022-10-23T03:53:58;24.63;;;17.40;;
9888;SDS011;4983;42.112;24.738;2022-10-23T03:56:25;24.17;;;16.73;;
9888;SDS011;4983;42.112;24.738;2022-10-23T03:58:53;18.27;;;16.10;;
9888;SDS011;4983;42.112;24.738;2022-10-23T04:01:20;24.80;;;18.97;;
9888;SDS011;4983;42.112;24.738;2022-10-23T04:03:47;19.60;;;16.80;;
9888;SDS011;4983;42.112;24.738;2022-10-23T04:06:13;20.77;;;16.73;;
9888;SDS011;4983;42.112;24.738;2022-10-23T04:08:41;27.10;;;16.03;;
9888;SDS011;4983;42.112;24.738;2022-10-23T04:11:08;21.37;;;15.43;;
9888;SDS011;4983;42.112;24.738;2022-10-23T04:13:34;19.53;;;15.53;;
9888;SDS011;4983;42.112;24.738;2022-10-23T04:16:03;23.77;;;16.33;;
9888;SDS011;4983;42.112;24.738;2022-10-23T04:18:30;17.03;;;14.10;;
9888;SDS011;4983;42.112;24.738;2022-10-23T04:20:57;21.73;;;16.20;;
9888;SDS011;4983;42.112;24.738;2022-10-23T04:23:24;25.10;;;15.37;;
9888;SDS011;4983;42.112;24.738;2022-10-23T04:25:50;38.77;;;17.00;;
9888;SDS011;4983;42.112;24.738;2022-10-23T04:28:17;29.17;;;16.30;;
9888;SDS011;4983;42.112;24.738;2022-10-23T04:30:44;23.87;;;15.23;;
9888;SDS011;4983;42.112;24.738;2022-10-23T04:33:12;28.50;;;15.83;;
9888;SDS011;4983;42.112;24.738;2022-10-23T04:35:39;31.43;;;15.97;;
9888;SDS011;4983;42.112;24.738;2022-10-23T04:38:06;24.50;;;15.67;;
9888;SDS011;4983;42.112;24.738;2022-10-23T04:40:33;27.53;;;15.17;;
9888;SDS011;4983;42.112;24.738;2022-10-23T04:42:59;19.50;;;12.97;;
9888;SDS011;4983;42.112;24.738;2022-10-23T04:45:26;20.67;;;12.33;;
9888;SDS011;4983;42.112;24.738;2022-10-23T04:47:53;16.60;;;11.07;;
9888;SDS011;4983;42.112;24.738;2022-10-23T04:50:22;17.10;;;11.30;;
9888;SDS011;4983;42.112;24.738;2022-10-23T04:52:52;19.23;;;10.10;;
9888;SDS011;4983;42.112;24.738;2022-10-23T04:55:20;15.07;;;9.03;;
9888;SDS011;4983;42.112;24.738;2022-10-23T04:57:47;19.73;;;9.60;;
9888;SDS011;4983;42.112;24.738;2022-10-23T05:00:14;15.50;;;8.33;;
9888;SDS011;4983;42.112;24.738;2022-10-23T05:02:41;16.93;;;8.97;;
9888;SDS011;4983;42.112;24.738;2022-10-23T05:05:08;20.27;;;9.10;;
9888;SDS011;4983;42.112;24.738;2022-10-23T05:07:36;26.17;;;9.10;;
9888;SDS011;4983;42.112;24.738;2022-10-23T05:10:04;26.57;;;8.80;;
9888;SDS011;4983;42.112;24.738;2022-10-23T05:12:30;35.50;;;10.27;;
9888;SDS011;4983;42.112;24.738;2022-10-23T05:14:57;19.97;;;8.00;;
9888;SDS011;4983;42.112;24.738;2022-10-23T05:17:25;17.90;;;7.70;;
9888;SDS011;4983;42.112;24.738;2022-10-23T05:19:54;15.17;;;7.23;;
9888;SDS011;4983;42.112;24.738;2022-10-23T05:22:22;15.77;;;7.20;;
9888;SDS011;4983;42.112;24.738;2022-10-23T05:24:52;15.53;;;7.27;;
9888;SDS011;4983;42.112;24.738;2022-10-23T05:27:18;19.23;;;7.70;;
9888;SDS011;4983;42.112;24.738;2022-10-23T05:29:45;13.87;;;6.43;;
9888;SDS011;4983;42.112;24.738;2022-10-23T05:32:12;15.43;;;6.27;;
9888;SDS011;4983;42.112;24.738;2022-10-23T05:34:39;16.63;;;6.57;;
9888;SDS011;4983;42.112;24.738;2022-10-23T05:37:08;10.60;;;6.20;;
9888;SDS011;4983;42.112;24.738;2022-10-23T05:39:36;12.87;;;5.90;;
9888;SDS011;4983;42.112;24.738;2022-10-23T05:42:04;11.03;;;5.60;;
9888;SDS011;4983;42.112;24.738;2022-10-23T05:44:31;13.03;;;5.90;;
9888;SDS011;4983;42.112;24.738;2022-10-23T05:46:58;12.43;;;5.60;;
9888;SDS011;4983;42.112;24.738;2022-10-23T05:49:24;11.00;;;4.40;;
9888;SDS011;4983;42.112;24.738;2022-10-23T05:51:51;9.90;;;4.93;;
9888;SDS011;4983;42.112;24.738;2022-10-23T05:54:18;12.30;;;4.70;;
9888;SDS011;4983;42.112;24.738;2022-10-23T05:56:45;13.20;;;4.70;;
9888;SDS011;4983;42.112;24.738;2022-10-23T05:59:14;11.43;;;4.73;;
9888;SDS011;4983;42.112;24.738;2022-10-23T06:01:41;14.17;;;4.73;;
9888;SDS011;4983;42.112;24.738;2022-10-23T06:04:08;12.10;;;4.90;;
9888;SDS011;4983;42.112;24.738;2022-10-23T06:06:35;11.80;;;5.00;;
9888;SDS011;4983;42.112;24.738;2022-10-23T06:09:02;13.50;;;4.60;;
9888;SDS011;4983;42.112;24.738;2022-10-23T06:11:30;13.83;;;4.83;;
9888;SDS011;4983;42.112;24.738;2022-10-23T06:13:57;10.83;;;5.10;;
9888;SDS011;4983;42.112;24.738;2022-10-23T06:16:26;20.50;;;5.20;;
9888;SDS011;4983;42.112;24.738;2022-10-23T06:18:53;18.13;;;4.80;;
9888;SDS011;4983;42.112;24.738;2022-10-23T06:21:20;15.33;;;5.17;;
9888;SDS011;4983;42.112;24.738;2022-10-23T06:23:46;24.27;;;5.27;;
9888;SDS011;4983;42.112;24.738;2022-10-23T06:26:14;25.50;;;6.30;;
9888;SDS011;4983;42.112;24.738;2022-10-23T06:28:41;18.60;;;5.20;;
9888;SDS011;4983;42.112;24.738;2022-10-23T06:31:09;19.67;;;5.17;;
9888;SDS011;4983;42.112;24.738;2022-10-23T06:33:37;14.97;;;5.20;;
9888;SDS011;4983;42.112;24.738;2022-10-23T06:36:06;16.97;;;5.00;;
9888;SDS011;4983;42.112;24.738;2022-10-23T06:38:35;27.80;;;5.13;;
9888;SDS011;4983;42.112;24.738;2022-10-23T06:41:05;20.30;;;5.50;;
9888;SDS011;4983;42.112;24.738;2022-10-23T06:43:32;30.17;;;6.47;;
9888;SDS011;4983;42.112;24.738;2022-10-23T06:45:59;13.20;;;5.07;;
9888;SDS011;4983;42.112;24.738;2022-10-23T06:48:26;16.97;;;5.30;;
9888;SDS011;4983;42.112;24.738;2022-10-23T06:50:54;10.47;;;4.97;;
9888;SDS011;4983;42.112;24.738;2022-10-23T06:53:21;17.20;;;5.70;;
9888;SDS011;4983;42.112;24.738;2022-10-23T06:55:49;12.33;;;5.33;;
9888;SDS011;4983;42.112;24.738;2022-10-23T06:58:16;28.97;;;7.50;;
9888;SDS011;4983;42.112;24.738;2022-10-23T07:00:43;14.40;;;5.77;;
9888;SDS011;4983;42.112;24.738;2022-10-23T07:03:10;17.03;;;5.13;;
9888;SDS011;4983;42.112;24.738;2022-10-23T07:05:36;15.10;;;5.93;;
9888;SDS011;4983;42.112;24.738;2022-10-23T07:08:05;12.93;;;6.13;;
9888;SDS011;4983;42.112;24.738;2022-10-23T07:10:31;9.47;;;5.53;;
9888;SDS011;4983;42.112;24.738;2022-10-23T07:12:59;16.63;;;6.20;;
9888;SDS011;4983;42.112;24.738;2022-10-23T07:15:27;24.87;;;8.10;;
9888;SDS011;4983;42.112;24.738;2022-10-23T07:17:54;27.97;;;7.83;;
9888;SDS011;4983;42.112;24.738;2022-10-23T07:20:21;13.73;;;5.80;;
9888;SDS011;4983;42.112;24.738;2022-10-23T07:22:49;15.47;;;5.47;;
9888;SDS011;4983;42.112;24.738;2022-10-23T07:25:17;12.43;;;5.33;;
9888;SDS011;4983;42.112;24.738;2022-10-23T07:27:44;18.23;;;5.97;;
9888;SDS011;4983;42.112;24.738;2022-10-23T07:30:11;15.90;;;5.80;;
9888;SDS011;4983;42.112;24.738;2022-10-23T07:32:39;18.70;;;5.67;;
9888;SDS011;4983;42.112;24.738;2022-10-23T07:35:06;13.37;;;5.60;;
9888;SDS011;4983;42.112;24.738;2022-10-23T07:37:33;17.87;;;6.53;;
9888;SDS011;4983;42.112;24.738;2022-10-23T07:40:00;23.40;;;5.80;;
9888;SDS011;4983;42.112;24.738;2022-10-23T07:42:28;13.80;;;6.10;;
9888;SDS011;4983;42.112;24.738;2022-10-23T07:44:55;13.27;;;5.90;;
9888;SDS011;4983;42.112;24.738;2022-10-23T07:47:22;17.90;;;6.67;;
9888;SDS011;4983;42.112;24.738;2022-10-23T07:49:49;14.13;;;5.60;;
9888;SDS011;4983;42.112;24.738;2022-10-23T07:52:15;26.43;;;6.90;;
9888;SDS011;4983;42.112;24.738;2022-10-23T07:54:42;14.97;;;5.37;;
9888;SDS011;4983;42.112;24.738;2022-10-23T07:57:09;15.33;;;5.40;;
9888;SDS011;4983;42.112;24.738;2022-10-23T07:59:38;21.20;;;6.30;;
9888;SDS011;4983;42.112;24.738;2022-10-23T08:02:08;15.87;;;5.20;;
9888;SDS011;4983;42.112;24.738;2022-10-23T08:04:35;26.63;;;6.13;;
9888;SDS011;4983;42.112;24.738;2022-10-23T08:07:02;25.80;;;5.50;;
9888;SDS011;4983;42.112;24.738;2022-10-23T08:09:29;21.70;;;5.53;;
9888;SDS011;4983;42.112;24.738;2022-10-23T08:11:56;46.93;;;7.13;;
9888;SDS011;4983;42.112;24.738;2022-10-23T08:14:23;34.33;;;6.47;;
9888;SDS011;4983;42.112;24.738;2022-10-23T08:16:52;78.97;;;9.63;;
9888;SDS011;4983;42.112;24.738;2022-10-23T08:19:18;20.03;;;5.03;;
9888;SDS011;4983;42.112;24.738;2022-10-23T08:21:45;22.43;;;5.30;;
9888;SDS011;4983;42.112;24.738;2022-10-23T08:24:12;25.30;;;5.47;;
9888;SDS011;4983;42.112;24.738;2022-10-23T08:26:39;30.10;;;5.63;;
9888;SDS011;4983;42.112;24.738;2022-10-23T08:29:06;32.50;;;5.37;;
9888;SDS011;4983;42.112;24.738;2022-10-23T08:31:33;56.97;;;6.77;;
9888;SDS011;4983;42.112;24.738;2022-10-23T08:34:01;19.23;;;4.60;;
9888;SDS011;4983;42.112;24.738;2022-10-23T08:36:28;33.87;;;5.57;;
9888;SDS011;4983;42.112;24.738;2022-10-23T08:38:55;22.03;;;4.43;;
9888;SDS011;4983;42.112;24.738;2022-10-23T08:41:23;24.03;;;4.37;;
9888;SDS011;4983;42.112;24.738;2022-10-23T08:43:52;27.47;;;4.70;;
9888;SDS011;4983;42.112;24.738;2022-10-23T08:46:20;20.07;;;4.40;;
9888;SDS011;4983;42.112;24.738;2022-10-23T08:48:50;34.50;;;4.83;;
9888;SDS011;4983;42.112;24.738;2022-10-23T08:51:22;47.73;;;6.17;;
9888;SDS011;4983;42.112;24.738;2022-10-23T08:53:51;34.83;;;4.93;;
9888;SDS011;4983;42.112;24.738;2022-10-23T08:56:21;19.87;;;3.60;;
9888;SDS011;4983;42.112;24.738;2022-10-23T08:58:51;23.33;;;4.20;;
9888;SDS011;4983;42.112;24.738;2022-10-23T09:01:23;23.00;;;3.63;;
9888;SDS011;4983;42.112;24.738;2022-10-23T09:03:52;16.33;;;3.33;;
9888;SDS011;4983;42.112;24.738;2022-10-23T09:06:20;58.53;;;6.17;;
9888;SDS011;4983;42.112;24.738;2022-10-23T09:08:53;16.67;;;3.17;;
9888;SDS011;4983;42.112;24.738;2022-10-23T09:11:27;11.93;;;2.90;;
9888;SDS011;4983;42.112;24.738;2022-10-23T09:14:06;28.00;;;3.50;;
9888;SDS011;4983;42.112;24.738;2022-10-23T09:16:42;15.33;;;3.20;;
9888;SDS011;4983;42.112;24.738;2022-10-23T09:19:14;17.30;;;2.70;;
9888;SDS011;4983;42.112;24.738;2022-10-23T09:21:42;25.47;;;3.30;;
9888;SDS011;4983;42.112;24.738;2022-10-23T09:24:13;15.17;;;2.60;;
9888;SDS011;4983;42.112;24.738;2022-10-23T09:26:42;14.37;;;2.70;;
9888;SDS011;4983;42.112;24.738;2022-10-23T09:29:18;17.93;;;2.47;;
9888;SDS011;4983;42.112;24.738;2022-10-23T09:31:47;14.67;;;2.30;;
9888;SDS011;4983;42.112;24.738;2022-10-23T09:34:15;18.17;;;2.43;;
9888;SDS011;4983;42.112;24.738;2022-10-23T09:36:47;20.40;;;2.60;;
9888;SDS011;4983;42.112;24.738;2022-10-23T09:39:22;6.13;;;2.00;;
9888;SDS011;4983;42.112;24.738;2022-10-23T09:41:49;21.70;;;2.73;;
9888;SDS011;4983;42.112;24.738;2022-10-23T09:44:17;12.63;;;2.13;;
9888;SDS011;4983;42.112;24.738;2022-10-23T09:46:45;9.33;;;2.00;;
9888;SDS011;4983;42.112;24.738;2022-10-23T09:49:14;6.80;;;1.90;;
9888;SDS011;4983;42.112;24.738;2022-10-23T09:51:45;9.70;;;2.10;;
9888;SDS011;4983;42.112;24.738;2022-10-23T09:54:13;20.90;;;3.03;;
9888;SDS011;4983;42.112;24.738;2022-10-23T09:56:46;7.03;;;2.37;;
9888;SDS011;4983;42.112;24.738;2022-10-23T09:59:20;18.47;;;2.27;;
9888;SDS011;4983;42.112;24.738;2022-10-23T10:01:48;7.63;;;1.70;;
9888;SDS011;4983;42.112;24.738;2022-10-23T10:04:16;27.57;;;3.53;;
9888;SDS011;4983;42.112;24.738;2022-10-23T10:06:42;11.23;;;2.40;;
9888;SDS011;4983;42.112;24.738;2022-10-23T10:09:11;9.43;;;2.43;;
9888;SDS011;4983;42.112;24.738;2022-10-23T10:11:38;5.57;;;1.90;;
9888;SDS011;4983;42.112;24.738;2022-10-23T10:14:27;9.63;;;2.00;;
9888;SDS011;4983;42.112;24.738;2022-10-23T10:16:57;4.07;;;2.10;;
9888;SDS011;4983;42.112;24.738;2022-10-23T10:19:29;3.53;;;1.83;;
9888;SDS011;4983;42.112;24.738;2022-10-23T10:22:00;13.33;;;2.57;;
9888;SDS011;4983;42.112;24.738;2022-10-23T10:24:34;9.03;;;2.03;;
9888;SDS011;4983;42.112;24.738;2022-10-23T10:27:03;7.80;;;2.63;;
9888;SDS011;4983;42.112;24.738;2022-10-23T10:29:39;9.10;;;2.60;;
9888;SDS011;4983;42.112;24.738;2022-10-23T10:32:12;6.33;;;2.20;;
9888;SDS011;4983;42.112;24.738;2022-10-23T10:34:42;4.83;;;2.37;;
9888;SDS011;4983;42.112;24.738;2022-10-23T10:37:16;4.00;;;1.97;;
9888;SDS011;4983;42.112;24.738;2022-10-23T10:39:46;5.23;;;2.00;;
9888;SDS011;4983;42.112;24.738;2022-10-23T10:42:23;9.57;;;1.77;;
9888;SDS011;4983;42.112;24.738;2022-10-23T10:44:59;2.53;;;1.67;;
9888;SDS011;4983;42.112;24.738;2022-10-23T10:47:30;14.97;;;2.83;;
9888;SDS011;4983;42.112;24.738;2022-10-23T10:50:02;5.83;;;1.70;;
9888;SDS011;4983;42.112;24.738;2022-10-23T10:52:32;2.53;;;1.60;;
9888;SDS011;4983;42.112;24.738;2022-10-23T10:55:02;3.73;;;1.60;;
9888;SDS011;4983;42.112;24.738;2022-10-23T10:57:31;4.37;;;1.90;;
9888;SDS011;4983;42.112;24.738;2022-10-23T11:00:03;5.00;;;2.27;;
9888;SDS011;4983;42.112;24.738;2022-10-23T11:02:33;3.83;;;1.80;;
9888;SDS011;4983;42.112;24.738;2022-10-23T11:05:04;1.87;;;1.60;;
9888;SDS011;4983;42.112;24.738;2022-10-23T11:07:36;5.23;;;1.63;;
9888;SDS011;4983;42.112;24.738;2022-10-23T11:10:12;7.50;;;1.90;;
9888;SDS011;4983;42.112;24.738;2022-10-23T11:12:40;7.40;;;1.50;;
9888;SDS011;4983;42.112;24.738;2022-10-23T11:15:12;6.10;;;1.93;;
9888;SDS011;4983;42.112;24.738;2022-10-23T11:17:39;2.90;;;1.60;;
9888;SDS011;4983;42.112;24.738;2022-10-23T11:20:12;5.50;;;1.80;;
9888;SDS011;4983;42.112;24.738;2022-10-23T11:22:41;4.97;;;1.90;;
9888;SDS011;4983;42.112;24.738;2022-10-23T11:25:22;2.73;;;1.60;;
9888;SDS011;4983;42.112;24.738;2022-10-23T11:30:37;7.23;;;1.90;;
9888;SDS011;4983;42.112;24.738;2022-10-23T11:33:18;3.23;;;1.63;;
9888;SDS011;4983;42.112;24.738;2022-10-23T11:35:52;3.60;;;1.70;;
9888;SDS011;4983;42.112;24.738;2022-10-23T11:38:23;4.97;;;1.90;;
9888;SDS011;4983;42.112;24.738;2022-10-23T11:40:50;6.53;;;1.80;;
9888;SDS011;4983;42.112;24.738;2022-10-23T11:43:25;7.77;;;2.20;;
9888;SDS011;4983;42.112;24.738;2022-10-23T11:45:53;7.13;;;1.93;;
9888;SDS011;4983;42.112;24.738;2022-10-23T11:48:21;2.93;;;2.00;;
9888;SDS011;4983;42.112;24.738;2022-10-23T11:50:48;3.30;;;1.80;;
9888;SDS011;4983;42.112;24.738;2022-10-23T11:53:22;3.90;;;1.70;;
9888;SDS011;4983;42.112;24.738;2022-10-23T11:55:57;4.50;;;2.00;;
9888;SDS011;4983;42.112;24.738;2022-10-23T11:58:24;3.57;;;1.80;;
9888;SDS011;4983;42.112;24.738;2022-10-23T12:01:02;2.13;;;1.90;;
9888;SDS011;4983;42.112;24.738;2022-10-23T12:03:38;4.40;;;1.97;;
9888;SDS011;4983;42.112;24.738;2022-10-23T12:06:05;6.53;;;1.77;;
9888;SDS011;4983;42.112;24.738;2022-10-23T12:08:33;3.00;;;1.77;;
9888;SDS011;4983;42.112;24.738;2022-10-23T12:11:01;4.60;;;1.80;;
9888;SDS011;4983;42.112;24.738;2022-10-23T12:13:29;9.40;;;2.10;;
9888;SDS011;4983;42.112;24.738;2022-10-23T12:15:56;5.70;;;2.00;;
9888;SDS011;4983;42.112;24.738;2022-10-23T12:18:24;5.80;;;2.10;;
9888;SDS011;4983;42.112;24.738;2022-10-23T12:20:53;5.80;;;2.00;;
9888;SDS011;4983;42.112;24.738;2022-10-23T12:23:24;3.53;;;2.07;;
9888;SDS011;4983;42.112;24.738;2022-10-23T12:28:38;5.93;;;2.03;;
9888;SDS011;4983;42.112;24.738;2022-10-23T12:31:14;3.93;;;2.10;;
9888;SDS011;4983;42.112;24.738;2022-10-23T12:33:45;4.47;;;2.00;;
9888;SDS011;4983;42.112;24.738;2022-10-23T12:36:17;3.17;;;1.87;;
9888;SDS011;4983;42.112;24.738;2022-10-23T12:38:47;3.13;;;1.83;;
9888;SDS011;4983;42.112;24.738;2022-10-23T12:41:14;5.10;;;1.97;;
9888;SDS011;4983;42.112;24.738;2022-10-23T12:43:41;5.37;;;2.00;;
9888;SDS011;4983;42.112;24.738;2022-10-23T12:46:17;3.97;;;1.93;;
9888;SDS011;4983;42.112;24.738;2022-10-23T12:48:49;5.43;;;1.87;;
9888;SDS011;4983;42.112;24.738;2022-10-23T12:51:19;3.10;;;1.70;;
9888;SDS011;4983;42.112;24.738;2022-10-23T12:53:47;4.53;;;1.77;;
9888;SDS011;4983;42.112;24.738;2022-10-23T12:56:15;2.90;;;1.93;;
9888;SDS011;4983;42.112;24.738;2022-10-23T12:58:44;2.20;;;2.00;;
9888;SDS011;4983;42.112;24.738;2022-10-23T13:01:20;6.53;;;1.93;;
9888;SDS011;4983;42.112;24.738;2022-10-23T13:03:49;4.67;;;1.80;;
9888;SDS011;4983;42.112;24.738;2022-10-23T13:06:16;4.10;;;1.90;;
9888;SDS011;4983;42.112;24.738;2022-10-23T13:08:44;4.33;;;2.13;;
9888;SDS011;4983;42.112;24.738;2022-10-23T13:11:12;2.77;;;2.10;;
9888;SDS011;4983;42.112;24.738;2022-10-23T13:13:40;2.67;;;1.87;;
9888;SDS011;4983;42.112;24.738;2022-10-23T13:16:12;4.30;;;2.00;;
9888;SDS011;4983;42.112;24.738;2022-10-23T13:18:40;4.77;;;2.30;;
9888;SDS011;4983;42.112;24.738;2022-10-23T13:21:13;3.40;;;2.10;;
9888;SDS011;4983;42.112;24.738;2022-10-23T13:23:40;6.57;;;2.10;;
9888;SDS011;4983;42.112;24.738;2022-10-23T13:26:19;2.77;;;1.80;;
9888;SDS011;4983;42.112;24.738;2022-10-23T13:28:49;5.87;;;2.03;;
9888;SDS011;4983;42.112;24.738;2022-10-23T13:31:23;5.73;;;2.00;;
9888;SDS011;4983;42.112;24.738;2022-10-23T13:33:50;2.70;;;1.97;;
9888;SDS011;4983;42.112;24.738;2022-10-23T13:36:30;3.27;;;2.00;;
9888;SDS011;4983;42.112;24.738;2022-10-23T13:39:01;5.00;;;2.00;;
9888;SDS011;4983;42.112;24.738;2022-10-23T13:41:28;3.63;;;2.17;;
9888;SDS011;4983;42.112;24.738;2022-10-23T13:43:55;3.87;;;2.10;;
9888;SDS011;4983;42.112;24.738;2022-10-23T13:46:23;8.40;;;2.47;;
9888;SDS011;4983;42.112;24.738;2022-10-23T13:48:50;5.10;;;2.20;;
9888;SDS011;4983;42.112;24.738;2022-10-23T13:51:18;4.00;;;1.97;;
9888;SDS011;4983;42.112;24.738;2022-10-23T13:53:47;4.27;;;2.10;;
9888;SDS011;4983;42.112;24.738;2022-10-23T13:56:15;4.03;;;1.73;;
9888;SDS011;4983;42.112;24.738;2022-10-23T13:58:42;2.83;;;1.77;;
9888;SDS011;4983;42.112;24.738;2022-10-23T14:01:11;1.93;;;1.70;;
9888;SDS011;4983;42.112;24.738;2022-10-23T14:03:42;3.47;;;1.87;;
9888;SDS011;4983;42.112;24.738;2022-10-23T14:06:08;2.80;;;2.10;;
9888;SDS011;4983;42.112;24.738;2022-10-23T14:08:35;4.77;;;2.00;;
9888;SDS011;4983;42.112;24.738;2022-10-23T14:11:04;3.73;;;2.30;;
9888;SDS011;4983;42.112;24.738;2022-10-23T14:13:30;2.87;;;2.23;;
9888;SDS011;4983;42.112;24.738;2022-10-23T14:15:57;4.97;;;2.17;;
9888;SDS011;4983;42.112;24.738;2022-10-23T14:18:24;6.87;;;2.13;;
9888;SDS011;4983;42.112;24.738;2022-10-23T14:20:51;4.10;;;2.20;;
9888;SDS011;4983;42.112;24.738;2022-10-23T14:23:18;5.23;;;2.20;;
9888;SDS011;4983;42.112;24.738;2022-10-23T14:25:46;7.67;;;2.23;;
9888;SDS011;4983;42.112;24.738;2022-10-23T14:28:14;3.30;;;2.10;;
9888;SDS011;4983;42.112;24.738;2022-10-23T14:30:41;4.13;;;2.20;;
9888;SDS011;4983;42.112;24.738;2022-10-23T14:33:09;6.80;;;2.40;;
9888;SDS011;4983;42.112;24.738;2022-10-23T14:35:37;6.00;;;2.60;;
9888;SDS011;4983;42.112;24.738;2022-10-23T14:38:04;4.23;;;2.00;;
9888;SDS011;4983;42.112;24.738;2022-10-23T14:40:31;3.90;;;2.03;;
9888;SDS011;4983;42.112;24.738;2022-10-23T14:42:58;4.20;;;2.40;;
9888;SDS011;4983;42.112;24.738;2022-10-23T14:45:26;3.73;;;2.20;;
9888;SDS011;4983;42.112;24.738;2022-10-23T14:47:54;5.10;;;2.20;;
9888;SDS011;4983;42.112;24.738;2022-10-23T14:50:20;3.87;;;2.20;;
9888;SDS011;4983;42.112;24.738;2022-10-23T14:52:48;5.70;;;2.30;;
9888;SDS011;4983;42.112;24.738;2022-10-23T14:55:14;4.90;;;2.00;;
9888;SDS011;4983;42.112;24.738;2022-10-23T14:57:41;7.07;;;2.30;;
9888;SDS011;4983;42.112;24.738;2022-10-23T15:00:08;7.63;;;2.20;;
9888;SDS011;4983;42.112;24.738;2022-10-23T15:02:37;14.13;;;3.03;;
9888;SDS011;4983;42.112;24.738;2022-10-23T15:05:04;5.23;;;2.37;;